Time;durP1;ratioP1;P1;durP2;ratioP2;P2;SDS_P1;SDS_P2;PMS_P1;PMS_P2;Temp;Humidity;BMP_temperature;BMP_pressure;BME280_temperature;BME280_humidity;BME280_pressure;Samples;Min_cycle;Max_cycle;Signal;HPM_P1;HPM_P2
2022/07/21 00:00:36;;;;;;;7.32;2.37;;;;;;;27.61;29.95;99736.78;4442287;32;33869;-63
2022/07/21 00:03:04;;;;;;;5.47;2.20;;;;;;;27.46;30.14;99735.44;4454362;32;33765;-63
2022/07/21 00:05:31;;;;;;;3.97;2.00;;;;;;;27.13;30.59;99728.28;4457207;32;33439;-60
2022/07/21 00:07:59;;;;;;;4.60;2.17;;;;;;;27.23;30.61;99736.06;4456537;32;34663;-62
2022/07/21 00:10:27;;;;;;;4.87;2.25;;;;;;;27.16;30.69;99738.84;4466887;32;33707;-61
2022/07/21 00:12:55;;;;;;;7.47;2.42;;;;;;;27.34;30.62;99732.56;4454437;32;34929;-59
2022/07/21 00:15:25;;;;;;;6.07;2.25;;;;;;;27.31;30.69;99731.09;4463296;32;34835;-62
2022/07/21 00:17:53;;;;;;;4.12;2.22;;;;;;;27.12;30.72;99738.41;4454477;32;33442;-59
2022/07/21 00:20:21;;;;;;;4.40;2.10;;;;;;;27.20;30.49;99733.75;4468429;32;34037;-62
2022/07/21 00:22:48;;;;;;;5.65;2.33;;;;;;;27.04;30.83;99726.87;4468433;32;33452;-60
2022/07/21 00:25:16;;;;;;;4.53;2.30;;;;;;;26.99;31.22;99735.75;4458218;32;34429;-60
2022/07/21 00:27:44;;;;;;;4.45;2.03;;;;;;;27.05;30.97;99736.78;4452943;32;32621;-60
2022/07/21 00:30:12;;;;;;;5.90;2.28;;;;;;;26.96;31.18;99730.69;4464931;32;32861;-61
2022/07/21 00:32:40;;;;;;;6.55;2.30;;;;;;;26.58;31.96;99730.72;4455781;32;33840;-62
2022/07/21 00:35:09;;;;;;;7.22;2.50;;;;;;;26.71;31.82;99736.16;4466616;32;33170;-62
2022/07/21 00:37:37;;;;;;;5.40;2.55;;;;;;;26.53;32.19;99736.06;4468541;32;33967;-60
2022/07/21 00:40:07;;;;;;;5.62;2.35;;;;;;;26.38;32.36;99733.53;4468919;32;34980;-62
2022/07/21 00:42:36;;;;;;;5.18;2.58;;;;;;;26.48;32.19;99732.06;4464742;32;32523;-60
2022/07/21 00:45:05;;;;;;;5.05;2.55;;;;;;;26.59;31.86;99735.19;4466326;32;33144;-62
2022/07/21 00:47:34;;;;;;;6.78;2.60;;;;;;;26.19;32.59;99732.56;4463590;32;33756;-59
2022/07/21 00:50:05;;;;;;;9.48;2.90;;;;;;;26.32;32.21;99734.41;4453420;32;33910;-60
2022/07/21 00:52:32;;;;;;;7.43;2.55;;;;;;;26.48;31.81;99734.81;4452982;32;33667;-60
2022/07/21 00:55:01;;;;;;;6.82;2.33;;;;;;;26.46;31.87;99733.31;4465443;32;33125;-60
2022/07/21 00:57:29;;;;;;;5.57;2.80;;;;;;;26.76;31.29;99732.75;4462101;32;33477;-60
2022/07/21 00:59:57;;;;;;;8.48;2.80;;;;;;;26.94;30.83;99728.19;4468935;32;34890;-61
2022/07/21 01:02:26;;;;;;;4.47;2.10;;;;;;;27.02;30.91;99728.97;4454378;32;32590;-60
2022/07/21 01:04:54;;;;;;;6.28;2.45;;;;;;;26.79;31.90;99727.66;4463986;32;33037;-61
2022/07/21 01:07:21;;;;;;;5.15;2.40;;;;;;;27.07;31.41;99735.50;4463667;32;33904;-60
2022/07/21 01:09:50;;;;;;;6.62;2.92;;;;;;;27.17;31.32;99737.78;4452124;32;33717;-62
2022/07/21 01:12:17;;;;;;;4.95;2.45;;;;;;;26.81;31.76;99733.78;4446758;32;32570;-60
2022/07/21 01:14:45;;;;;;;6.03;2.80;;;;;;;26.82;31.72;99729.97;4467992;32;34414;-60
2022/07/21 01:17:13;;;;;;;9.05;3.15;;;;;;;26.84;31.07;99740.75;4458786;32;33537;-59
2022/07/21 01:19:40;;;;;;;6.00;2.78;;;;;;;26.76;31.35;99733.59;4451368;32;34946;-62
2022/07/21 01:22:08;;;;;;;4.43;2.20;;;;;;;26.87;31.01;99737.53;4450852;32;32990;-59
2022/07/21 01:24:36;;;;;;;5.20;2.40;;;;;;;26.35;32.63;99731.22;4456975;32;34430;-60
2022/07/21 01:27:04;;;;;;;5.28;2.15;;;;;;;26.85;31.90;99726.78;4464909;32;32618;-61
2022/07/21 01:29:31;;;;;;;6.47;2.40;;;;;;;26.80;32.04;99726.59;4453376;32;33964;-62
2022/07/21 01:31:59;;;;;;;5.80;2.15;;;;;;;26.94;32.01;99733.69;4458272;32;33691;-61
2022/07/21 01:34:26;;;;;;;5.70;2.67;;;;;;;27.04;31.84;99724.97;4464322;32;33118;-61
2022/07/21 01:36:54;;;;;;;7.37;2.40;;;;;;;27.00;31.75;99734.72;4469422;32;35200;-62
2022/07/21 01:42:09;;;;;;;7.18;2.30;;;;;;;27.07;31.37;99731.91;4468001;32;32176;-61
2022/07/21 01:44:37;;;;;;;5.62;2.30;;;;;;;27.00;31.42;99729.22;4461335;32;34271;-61
2022/07/21 01:47:05;;;;;;;5.62;2.40;;;;;;;27.10;31.04;99725.97;4467707;32;34969;-60
2022/07/21 01:49:32;;;;;;;5.07;2.20;;;;;;;27.02;31.20;99727.06;4468970;32;34074;-61
2022/07/21 01:52:00;;;;;;;6.15;2.65;;;;;;;27.07;31.20;99729.16;4454674;32;33214;-61
2022/07/21 01:54:28;;;;;;;8.50;2.62;;;;;;;27.07;31.35;99721.75;4468151;32;32005;-60
2022/07/21 01:56:55;;;;;;;4.35;2.10;;;;;;;26.98;31.72;99723.09;4469067;32;33642;-60
2022/07/21 01:59:23;;;;;;;5.82;2.28;;;;;;;26.92;31.88;99722.06;4469374;32;33929;-61
2022/07/21 02:01:51;;;;;;;6.30;2.15;;;;;;;26.93;31.57;99718.28;4468089;32;33660;-60
2022/07/21 02:04:18;;;;;;;5.93;2.50;;;;;;;26.83;32.10;99712.41;4458799;32;32132;-62
2022/07/21 02:06:46;;;;;;;4.97;2.33;;;;;;;26.69;32.32;99727.31;4458871;32;35087;-60
2022/07/21 02:09:14;;;;;;;5.22;2.80;;;;;;;26.68;32.54;99726.47;4453669;32;34045;-60
2022/07/21 02:11:41;;;;;;;8.77;2.70;;;;;;;26.71;32.47;99726.03;4453625;32;34599;-61
2022/07/21 02:14:09;;;;;;;6.12;2.30;;;;;;;26.74;32.35;99718.37;4455522;32;31972;-62
2022/07/21 02:16:37;;;;;;;8.88;2.55;;;;;;;26.70;32.37;99715.25;4459975;32;34808;-61
2022/07/21 02:19:04;;;;;;;5.78;2.87;;;;;;;26.59;32.65;99721.44;4458718;32;34895;-63
2022/07/21 02:21:32;;;;;;;5.37;2.05;;;;;;;26.55;32.82;99731.16;4453534;32;33734;-60
2022/07/21 02:24:00;;;;;;;7.07;2.53;;;;;;;26.49;32.87;99735.66;4463629;32;33352;-59
2022/07/21 02:26:27;;;;;;;6.30;2.65;;;;;;;26.56;32.67;99739.19;4454873;32;34001;-60
2022/07/21 02:28:55;;;;;;;4.35;2.20;;;;;;;26.62;32.53;99742.97;4453253;32;34915;-60
2022/07/21 02:31:23;;;;;;;4.78;2.22;;;;;;;26.53;32.68;99736.88;4456530;32;34679;-61
2022/07/21 02:33:51;;;;;;;4.97;2.95;;;;;;;26.50;32.84;99741.97;4460677;32;33412;-60
2022/07/21 02:36:18;;;;;;;7.85;2.85;;;;;;;26.46;33.00;99736.06;4452381;32;32641;-60
2022/07/21 02:38:46;;;;;;;4.40;2.30;;;;;;;26.27;33.40;99740.56;4453343;32;32450;-61
2022/07/21 02:41:13;;;;;;;5.80;2.47;;;;;;;26.42;33.24;99737.53;4464656;32;33860;-62
2022/07/21 02:43:41;;;;;;;4.25;2.50;;;;;;;26.28;33.51;99738.66;4468316;32;33013;-60
2022/07/21 02:46:08;;;;;;;6.20;2.50;;;;;;;26.33;33.57;99733.38;4458856;32;33828;-60
2022/07/21 02:48:36;;;;;;;6.93;2.83;;;;;;;26.28;33.69;99734.00;4453128;32;35120;-60
2022/07/21 02:51:04;;;;;;;6.72;2.55;;;;;;;26.26;33.60;99716.94;4453469;32;32313;-60
2022/07/21 02:53:34;;;;;;;5.30;2.37;;;;;;;26.35;33.61;99748.53;4458999;32;34389;-59
2022/07/21 02:56:03;;;;;;;7.87;2.75;;;;;;;26.30;33.29;99742.87;4463718;32;33894;-60
2022/07/21 02:58:31;;;;;;;8.57;3.00;;;;;;;25.91;33.82;99736.47;4456939;32;35181;-60
2022/07/21 03:01:02;;;;;;;9.07;2.33;;;;;;;26.25;33.28;99735.28;4453331;32;32732;-59
2022/07/21 03:03:34;;;;;;;9.52;2.60;;;;;;;26.16;33.23;99735.72;4452787;32;33384;-62
2022/07/21 03:06:03;;;;;;;8.23;2.40;;;;;;;26.33;32.96;99741.59;4457467;32;32127;-59
2022/07/21 03:08:31;;;;;;;7.75;2.17;;;;;;;26.45;32.76;99737.09;4460645;32;34994;-61
2022/07/21 03:10:59;;;;;;;7.03;2.80;;;;;;;26.47;32.63;99737.72;4467927;32;33682;-60
2022/07/21 03:13:26;;;;;;;5.75;2.58;;;;;;;26.51;32.56;99741.75;4465918;32;32231;-61
2022/07/21 03:15:54;;;;;;;6.70;2.53;;;;;;;26.53;32.50;99744.28;4461665;32;33826;-59
2022/07/21 03:18:22;;;;;;;5.10;2.72;;;;;;;26.64;32.32;99747.16;4453100;32;32471;-59
2022/07/21 03:20:50;;;;;;;6.43;2.50;;;;;;;26.57;32.25;99740.88;4456672;32;33838;-62
2022/07/21 03:23:18;;;;;;;5.12;2.22;;;;;;;26.42;32.66;99743.88;4468573;32;32050;-60
2022/07/21 03:25:45;;;;;;;8.73;2.75;;;;;;;26.30;33.29;99740.13;4458527;32;34507;-61
2022/07/21 03:28:13;;;;;;;5.18;2.50;;;;;;;26.34;33.32;99746.03;4453037;32;32938;-62
2022/07/21 03:30:41;;;;;;;8.07;2.20;;;;;;;26.14;33.69;99741.44;4454939;32;34954;-60
2022/07/21 03:33:08;;;;;;;4.53;2.60;;;;;;;26.22;33.62;99743.94;4455005;32;33223;-62
2022/07/21 03:35:36;;;;;;;4.62;2.22;;;;;;;26.41;33.23;99747.66;4458432;32;33802;-59
2022/07/21 03:38:04;;;;;;;3.60;1.98;;;;;;;26.54;33.06;99752.28;4452926;32;34853;-60
2022/07/21 03:40:34;;;;;;;6.10;2.70;;;;;;;26.49;33.20;99746.62;4453117;32;34625;-59
2022/07/21 03:43:04;;;;;;;6.15;2.53;;;;;;;26.30;33.65;99742.03;4453009;32;34056;-61
2022/07/21 03:45:34;;;;;;;7.28;2.50;;;;;;;26.53;33.22;99742.37;4456431;32;32925;-59
2022/07/21 03:48:03;;;;;;;6.93;2.40;;;;;;;26.56;33.00;99738.34;4458091;32;35313;-60
2022/07/21 03:50:31;;;;;;;6.18;2.53;;;;;;;26.30;33.62;99745.62;4464641;32;34913;-60
2022/07/21 03:52:59;;;;;;;5.53;2.87;;;;;;;26.42;33.18;99749.37;4459394;32;33176;-60
2022/07/21 03:55:28;;;;;;;6.03;2.78;;;;;;;26.51;33.03;99746.41;4454388;32;32488;-61
2022/07/21 03:58:00;;;;;;;6.00;2.70;;;;;;;26.49;33.13;99752.13;4454394;32;33877;-59
2022/07/21 04:00:33;;;;;;;5.85;2.78;;;;;;;26.68;32.86;99753.91;4460467;32;33678;-61
2022/07/21 04:03:01;;;;;;;4.78;2.95;;;;;;;26.61;33.01;99755.00;4463993;32;33072;-63
2022/07/21 04:05:29;;;;;;;7.40;2.90;;;;;;;26.83;32.63;99758.25;4461120;32;35019;-61
2022/07/21 04:07:57;;;;;;;4.50;2.22;;;;;;;26.94;32.48;99760.31;4454135;32;34947;-62
2022/07/21 04:10:32;;;;;;;6.43;2.67;;;;;;;26.76;33.06;99758.28;4457472;32;32611;-61
2022/07/21 04:13:02;;;;;;;5.95;2.78;;;;;;;26.97;32.90;99757.13;4454904;32;34483;-60
2022/07/21 04:15:30;;;;;;;5.62;2.80;;;;;;;27.09;32.78;99755.31;4462120;32;34776;-60
2022/07/21 04:17:58;;;;;;;4.47;2.37;;;;;;;27.14;33.20;99758.28;4460054;32;32700;-63
2022/07/21 04:20:26;;;;;;;8.20;2.67;;;;;;;27.29;33.33;99762.63;4461788;32;34517;-60
2022/07/21 04:22:54;;;;;;;9.05;3.25;;;;;;;27.38;33.69;99764.87;4462947;32;33161;-63
2022/07/21 04:25:21;;;;;;;7.28;3.10;;;;;;;27.38;33.43;99753.91;4453517;32;33833;-63
2022/07/21 04:27:50;;;;;;;7.65;3.00;;;;;;;27.31;33.80;99753.09;4454461;32;34974;-61
2022/07/21 04:30:20;;;;;;;8.18;2.97;;;;;;;27.28;33.75;99760.94;4461944;32;33594;-61
2022/07/21 04:32:48;;;;;;;10.57;2.70;;;;;;;27.31;33.63;99760.50;4469774;32;35515;-63
2022/07/21 04:35:16;;;;;;;8.48;3.50;;;;;;;27.53;33.15;99758.19;4469638;32;33405;-63
2022/07/21 04:37:44;;;;;;;6.07;2.70;;;;;;;27.62;33.11;99770.59;4458996;32;33767;-61
2022/07/21 04:40:13;;;;;;;9.02;3.03;;;;;;;27.63;33.15;99764.03;4459251;32;33542;-61
2022/07/21 04:42:41;;;;;;;7.65;2.92;;;;;;;27.81;33.04;99764.09;4450782;32;31845;-63
2022/07/21 04:45:10;;;;;;;6.35;2.83;;;;;;;27.85;33.00;99759.81;4459621;32;32430;-63
2022/07/21 04:47:47;;;;;;;7.28;2.72;;;;;;;27.95;32.94;99770.28;4454998;32;33918;-66
2022/07/21 04:50:16;;;;;;;5.80;3.00;;;;;;;28.17;32.54;99765.19;4469761;32;33847;-62
2022/07/21 04:52:44;;;;;;;6.57;2.85;;;;;;;28.28;32.34;99763.56;4467443;32;32086;-62
2022/07/21 04:55:12;;;;;;;8.73;3.25;;;;;;;28.44;31.89;99762.97;4463438;32;33533;-61
2022/07/21 04:57:43;;;;;;;9.55;3.05;;;;;;;28.49;32.29;99767.81;4462236;32;33916;-61
2022/07/21 05:00:14;;;;;;;6.03;2.58;;;;;;;28.61;32.30;99767.88;4462952;32;33957;-62
2022/07/21 05:02:43;;;;;;;9.30;3.15;;;;;;;28.70;32.02;99771.97;4456031;32;34531;-62
2022/07/21 05:05:11;;;;;;;6.32;2.60;;;;;;;28.77;31.99;99768.06;4454125;32;33416;-63
2022/07/21 05:07:39;;;;;;;6.68;2.92;;;;;;;28.92;31.74;99770.38;4455783;32;33989;-61
2022/07/21 05:10:13;;;;;;;6.72;2.70;;;;;;;28.98;31.50;99768.62;4467016;32;33590;-63
2022/07/21 05:12:40;;;;;;;7.50;2.67;;;;;;;29.11;31.47;99770.38;4461703;32;33272;-62
2022/07/21 05:15:11;;;;;;;10.90;3.20;;;;;;;29.17;31.36;99767.50;4469191;32;33609;-61
2022/07/21 05:17:40;;;;;;;7.87;2.50;;;;;;;29.14;31.27;99765.22;4448345;32;33280;-60
2022/07/21 05:20:09;;;;;;;9.57;3.00;;;;;;;29.33;30.78;99765.97;4453040;32;33101;-60
2022/07/21 05:22:37;;;;;;;5.35;2.75;;;;;;;29.52;30.46;99772.25;4453597;32;32093;-61
2022/07/21 05:25:05;;;;;;;6.93;2.97;;;;;;;29.64;29.48;99780.56;4468651;32;33574;-61
2022/07/21 05:27:33;;;;;;;12.60;4.68;;;;;;;29.72;29.37;99771.94;4468349;32;33810;-60
2022/07/21 05:30:02;;;;;;;8.82;3.28;;;;;;;29.78;30.32;99770.97;4467968;32;32262;-60
2022/07/21 05:32:30;;;;;;;11.85;3.30;;;;;;;29.87;31.79;99779.72;4456075;32;34433;-60
2022/07/21 05:34:58;;;;;;;11.02;4.28;;;;;;;29.94;31.68;99784.03;4466724;32;33694;-60
2022/07/21 05:37:27;;;;;;;6.68;3.15;;;;;;;30.11;31.61;99783.31;4461833;32;34914;-61
2022/07/21 05:39:55;;;;;;;7.72;3.40;;;;;;;30.08;30.71;99789.31;4462428;32;33673;-61
2022/07/21 05:42:22;;;;;;;10.05;3.80;;;;;;;30.01;31.02;99796.88;4468592;32;34227;-64
2022/07/21 05:44:50;;;;;;;9.35;3.60;;;;;;;30.00;30.58;99793.28;4461674;32;33747;-60
2022/07/21 05:47:17;;;;;;;9.25;3.90;;;;;;;29.97;31.57;99795.69;4467774;32;34331;-60
2022/07/21 05:49:45;;;;;;;5.70;3.00;;;;;;;30.15;31.10;99795.56;4468647;32;32519;-60
2022/07/21 05:52:13;;;;;;;10.55;3.75;;;;;;;30.09;31.22;99802.03;4468997;32;33473;-60
2022/07/21 05:54:40;;;;;;;9.82;3.80;;;;;;;29.63;31.53;99793.53;4468466;32;33432;-60
2022/07/21 05:57:08;;;;;;;8.55;3.75;;;;;;;30.01;31.58;99800.47;4464931;32;33836;-61
2022/07/21 05:59:36;;;;;;;10.77;3.47;;;;;;;30.33;31.22;99800.09;4466176;32;33881;-60
2022/07/21 06:02:03;;;;;;;8.68;3.97;;;;;;;30.24;31.01;99793.28;4453195;32;33069;-60
2022/07/21 06:04:31;;;;;;;9.40;4.07;;;;;;;30.44;31.05;99798.44;4449167;32;32063;-63
2022/07/21 06:06:59;;;;;;;12.07;3.85;;;;;;;30.58;30.95;99797.88;4466821;32;33801;-61
2022/07/21 06:09:26;;;;;;;9.30;4.03;;;;;;;30.57;30.16;99798.97;4458171;32;33477;-61
2022/07/21 06:11:54;;;;;;;9.63;4.18;;;;;;;30.76;29.40;99788.59;4464459;32;33341;-62
2022/07/21 06:14:23;;;;;;;8.85;3.70;;;;;;;30.77;30.32;99795.81;4467812;32;33666;-64
2022/07/21 06:16:51;;;;;;;7.68;4.00;;;;;;;31.07;30.42;99795.56;4455998;32;33881;-62
2022/07/21 06:19:19;;;;;;;8.45;4.37;;;;;;;31.28;29.47;99794.00;4453157;32;33277;-64
2022/07/21 06:21:46;;;;;;;15.80;5.78;;;;;;;31.03;29.02;99802.69;4464877;32;34253;-62
2022/07/21 06:24:14;;;;;;;8.50;4.30;;;;;;;30.97;30.28;99792.59;4468935;32;35193;-62
2022/07/21 06:26:42;;;;;;;8.10;3.92;;;;;;;31.26;28.77;99798.94;4468013;32;34054;-60
2022/07/21 06:29:10;;;;;;;8.63;3.42;;;;;;;31.43;28.73;99800.91;4467431;32;33562;-61
2022/07/21 06:31:38;;;;;;;8.52;3.65;;;;;;;31.28;28.02;99805.06;4467856;32;33299;-61
2022/07/21 06:34:05;;;;;;;5.57;3.45;;;;;;;31.26;28.96;99803.63;4464587;32;33820;-60
2022/07/21 06:36:33;;;;;;;7.57;3.90;;;;;;;31.29;29.16;99794.84;4465855;32;35187;-60
2022/07/21 06:39:00;;;;;;;9.25;4.00;;;;;;;31.35;27.98;99795.81;4465009;32;33729;-63
2022/07/21 06:41:28;;;;;;;7.05;3.72;;;;;;;31.58;27.48;99781.81;4465647;32;34428;-60
2022/07/21 06:43:56;;;;;;;7.28;3.65;;;;;;;31.59;27.91;99788.19;4462215;32;32499;-61
2022/07/21 06:46:24;;;;;;;6.22;3.62;;;;;;;31.24;27.79;99792.84;4463980;32;35388;-62
2022/07/21 06:48:52;;;;;;;9.18;3.78;;;;;;;31.31;27.77;99793.53;4464355;32;34869;-61
2022/07/21 06:51:19;;;;;;;7.15;3.70;;;;;;;31.66;27.34;99791.66;4467786;32;33188;-63
2022/07/21 06:53:47;;;;;;;7.72;3.42;;;;;;;31.49;26.92;99794.38;4462099;32;33483;-60
2022/07/21 06:56:17;;;;;;;7.35;3.75;;;;;;;31.09;27.68;99789.78;4456748;32;33973;-60
2022/07/21 06:58:44;;;;;;;8.70;4.60;;;;;;;31.28;27.07;99796.78;4451058;32;34260;-64
2022/07/21 07:01:18;;;;;;;6.78;3.33;;;;;;;31.04;27.71;99792.44;4456365;32;32894;-61
2022/07/21 07:03:46;;;;;;;6.55;3.70;;;;;;;31.50;27.98;99791.38;4467099;32;33448;-62
2022/07/21 07:06:15;;;;;;;7.25;3.45;;;;;;;31.76;27.63;99792.63;4451474;32;34089;-61
2022/07/21 07:08:43;;;;;;;7.28;3.60;;;;;;;31.41;27.09;99797.59;4447794;32;32298;-61
2022/07/21 07:11:12;;;;;;;4.95;3.12;;;;;;;31.25;27.61;99805.56;4445484;32;31981;-60
2022/07/21 07:13:39;;;;;;;7.30;4.00;;;;;;;31.01;27.96;99799.34;4468367;32;32285;-61
2022/07/21 07:16:23;;;;;;;7.40;4.03;;;;;;;31.51;27.87;99795.81;4456989;32;33964;-60
2022/07/21 07:18:51;;;;;;;8.00;3.87;;;;;;;31.50;26.70;99802.44;4467284;32;32589;-62
2022/07/21 07:21:19;;;;;;;6.57;3.47;;;;;;;31.45;27.61;99793.22;4455060;32;34539;-62
2022/07/21 07:23:47;;;;;;;10.10;4.20;;;;;;;31.57;27.72;99794.00;4453977;32;33946;-63
2022/07/21 07:26:14;;;;;;;7.22;4.03;;;;;;;32.16;26.52;99799.88;4462471;32;35010;-61
2022/07/21 07:28:42;;;;;;;9.93;4.07;;;;;;;31.83;26.68;99794.41;4458934;32;34158;-60
2022/07/21 07:31:10;;;;;;;7.05;3.30;;;;;;;32.14;26.39;99798.50;4461521;32;128429;-62
2022/07/21 07:33:37;;;;;;;11.30;4.10;;;;;;;32.04;26.52;99796.41;4458408;32;33652;-61
2022/07/21 07:36:06;;;;;;;9.90;3.85;;;;;;;32.19;26.75;99790.25;4455877;32;33726;-60
2022/07/21 07:38:34;;;;;;;9.32;3.25;;;;;;;32.31;26.02;99785.44;4454743;32;34593;-60
2022/07/21 07:41:02;;;;;;;6.78;3.58;;;;;;;31.96;26.88;99789.38;4452236;32;34247;-60
2022/07/21 07:43:30;;;;;;;5.85;3.55;;;;;;;31.65;26.67;99781.66;4439024;32;33874;-62
2022/07/21 07:46:00;;;;;;;6.37;3.65;;;;;;;32.12;26.44;99781.28;4458331;32;33888;-60
2022/07/21 07:48:28;;;;;;;7.68;3.67;;;;;;;32.27;26.16;99780.69;4454363;32;33381;-62
2022/07/21 07:50:55;;;;;;;7.18;3.83;;;;;;;32.37;26.09;99778.03;4461837;32;32561;-61
2022/07/21 07:53:23;;;;;;;8.13;4.55;;;;;;;32.41;25.89;99774.47;4459962;32;33922;-62
2022/07/21 07:55:51;;;;;;;7.15;3.40;;;;;;;32.26;26.13;99774.28;4467278;32;35110;-60
2022/07/21 07:58:18;;;;;;;9.57;4.37;;;;;;;32.57;25.99;99775.53;4468459;32;33690;-60
2022/07/21 08:00:46;;;;;;;12.63;3.67;;;;;;;32.67;25.80;99778.44;4458657;32;33995;-61
2022/07/21 08:03:25;;;;;;;9.45;3.70;;;;;;;32.93;25.66;99778.72;4458555;32;33115;-61
2022/07/21 08:05:54;;;;;;;10.52;3.47;;;;;;;33.12;26.16;99782.00;4440463;32;32627;-64
2022/07/21 08:08:22;;;;;;;7.10;3.83;;;;;;;33.00;25.28;99778.53;4438284;32;32441;-61
2022/07/21 08:10:49;;;;;;;7.20;3.67;;;;;;;32.99;25.03;99777.69;4453143;32;34680;-61
2022/07/21 08:13:18;;;;;;;8.05;3.65;;;;;;;33.16;25.15;99772.03;4452586;32;33802;-61
2022/07/21 08:15:47;;;;;;;8.30;3.97;;;;;;;33.52;24.61;99777.97;4451157;32;32317;-61
2022/07/21 08:18:16;;;;;;;13.48;3.87;;;;;;;33.19;24.71;99785.38;4452421;32;33779;-60
2022/07/21 08:20:44;;;;;;;8.45;3.70;;;;;;;33.00;25.15;99771.03;4456973;32;33175;-61
2022/07/21 08:23:12;;;;;;;8.48;3.75;;;;;;;33.43;23.97;99780.34;4452022;32;33585;-61
2022/07/21 08:25:42;;;;;;;10.80;3.70;;;;;;;33.43;24.42;99772.03;4451693;32;34098;-62
2022/07/21 08:28:11;;;;;;;5.95;3.45;;;;;;;33.50;24.67;99769.88;4460895;32;33724;-60
2022/07/21 08:30:38;;;;;;;9.55;3.90;;;;;;;33.69;23.74;99775.03;4457113;32;33318;-61
2022/07/21 08:33:06;;;;;;;6.18;3.58;;;;;;;33.24;24.03;99771.56;4442629;32;33514;-62
2022/07/21 08:35:34;;;;;;;12.50;3.85;;;;;;;33.82;24.61;99767.06;4439676;32;32778;-62
2022/07/21 08:38:07;;;;;;;6.22;3.50;;;;;;;33.80;24.17;99763.72;4461679;32;34006;-62
2022/07/21 08:40:38;;;;;;;7.10;3.22;;;;;;;33.84;23.24;99769.59;4449715;32;32895;-62
2022/07/21 08:43:08;;;;;;;8.15;3.47;;;;;;;33.81;23.68;99759.84;4465930;32;34350;-61
2022/07/21 08:45:37;;;;;;;7.62;3.80;;;;;;;34.18;23.01;99766.47;4460533;32;33790;-61
2022/07/21 08:48:05;;;;;;;7.70;4.30;;;;;;;33.77;23.38;99763.41;4451884;32;32327;-63
2022/07/21 08:50:36;;;;;;;5.95;3.30;;;;;;;34.22;22.38;99771.25;4440835;32;34334;-60
2022/07/21 08:53:04;;;;;;;8.82;3.53;;;;;;;34.34;22.06;99757.09;4461396;32;33887;-60
2022/07/21 08:55:34;;;;;;;5.15;2.92;;;;;;;34.52;22.29;99761.34;4455434;32;32717;-63
2022/07/21 08:58:06;;;;;;;8.75;3.85;;;;;;;34.61;22.49;99756.13;4463869;32;32699;-61
2022/07/21 09:00:36;;;;;;;6.55;3.95;;;;;;;34.65;22.35;99757.25;4456018;32;33225;-62
2022/07/21 09:03:19;;;;;;;10.30;3.55;;;;;;;34.73;23.10;99751.16;4440388;32;32022;-60
2022/07/21 09:06:06;;;;;;;8.85;4.47;;;;;;;34.64;22.31;99750.88;4440951;32;32602;-63
2022/07/21 09:08:58;;;;;;;5.45;3.30;;;;;;;34.57;22.34;99758.59;4454705;32;33683;-60
2022/07/21 09:11:28;;;;;;;7.25;3.80;;;;;;;34.91;21.87;99758.16;4458760;32;34350;-61
2022/07/21 09:14:06;;;;;;;7.82;4.00;;;;;;;34.13;22.89;99749.81;4450038;32;31985;-62
2022/07/21 09:16:44;;;;;;;7.07;3.90;;;;;;;34.69;22.34;99747.25;4469775;32;35279;-60
2022/07/21 09:19:23;;;;;;;9.02;3.67;;;;;;;34.88;23.08;99745.62;4457532;32;33702;-60
2022/07/21 09:21:53;;;;;;;6.60;3.40;;;;;;;34.74;22.55;99748.13;4446219;32;32983;-60
2022/07/21 09:24:28;;;;;;;6.07;4.03;;;;;;;34.94;21.96;99747.31;4449993;32;32746;-62
2022/07/21 09:27:06;;;;;;;6.40;3.80;;;;;;;34.91;21.86;99739.53;4455740;32;32323;-60
2022/07/21 09:30:00;;;;;;;6.97;3.42;;;;;;;35.05;22.13;99737.06;4441642;32;33512;-62
2022/07/21 09:32:29;;;;;;;;;;;;;;;35.56;22.08;99733.50;4448933;32;34374;-61
2022/07/21 09:35:03;;;;;;;7.03;3.50;;;;;;;35.49;21.48;99730.12;4463796;32;34702;-77
2022/07/21 09:37:36;;;;;;;7.18;3.55;;;;;;;35.68;20.93;99728.47;4458375;32;33856;-68
2022/07/21 09:40:14;;;;;;;9.70;3.37;;;;;;;35.90;20.21;99726.19;4460526;32;34609;-62
2022/07/21 09:42:48;;;;;;;6.90;3.00;;;;;;;36.30;19.82;99718.00;4452419;32;31601;-65
2022/07/21 09:45:17;;;;;;;9.13;3.80;;;;;;;36.11;20.26;99723.38;4446180;32;32073;-61
2022/07/21 09:47:46;;;;;;;7.45;4.03;;;;;;;36.17;20.05;99722.22;4458131;32;33863;-64
2022/07/21 09:50:15;;;;;;;8.55;3.62;;;;;;;35.95;20.17;99714.19;4453845;32;33497;-64
2022/07/21 09:52:57;;;;;;;5.30;3.22;;;;;;;36.34;19.78;99708.81;4459749;32;33193;-62
2022/07/21 09:55:25;;;;;;;7.68;3.33;;;;;;;36.15;20.05;99707.78;4446603;32;33481;-64
2022/07/21 09:57:55;;;;;;;8.40;3.42;;;;;;;36.56;19.54;99702.84;4463595;32;35305;-62
2022/07/21 10:00:23;;;;;;;9.30;3.67;;;;;;;36.83;19.48;99707.16;4448173;32;32115;-65
2022/07/21 10:02:51;;;;;;;6.62;3.22;;;;;;;37.12;19.22;99710.03;4461542;32;33310;-62
2022/07/21 10:05:20;;;;;;;8.15;3.70;;;;;;;37.26;18.81;99704.59;4458744;32;34820;-64
2022/07/21 10:08:02;;;;;;;6.12;3.05;;;;;;;37.44;19.64;99698.31;4455112;32;33729;-63
2022/07/21 10:10:33;;;;;;;7.53;3.65;;;;;;;37.85;19.00;99699.84;4460313;32;33692;-60
2022/07/21 10:13:21;;;;;;;5.20;3.28;;;;;;;37.75;18.56;99701.66;4438689;32;31860;-63
2022/07/21 10:15:49;;;;;;;7.47;3.62;;;;;;;37.99;18.31;99692.47;4454195;32;34840;-59
2022/07/21 10:18:50;;;;;;;6.97;3.60;;;;;;;38.23;18.27;99690.47;4455876;32;34909;-61
2022/07/21 10:21:48;;;;;;;7.78;3.70;;;;;;;38.30;18.37;99683.69;4383892;32;33462;-61
2022/07/21 10:24:16;;;;;;;6.12;3.12;;;;;;;38.33;17.63;99685.88;4448313;32;33092;-61
2022/07/21 10:27:04;;;;;;;9.02;3.78;;;;;;;38.35;17.94;99686.44;4458391;32;33884;-62
2022/07/21 10:29:47;;;;;;;5.10;3.05;;;;;;;38.48;18.16;99684.88;4448547;32;34157;-61
2022/07/21 10:32:16;;;;;;;6.37;3.20;;;;;;;38.76;17.97;99675.50;4461714;32;32205;-61
2022/07/21 10:34:44;;;;;;;7.68;3.58;;;;;;;38.02;18.54;99675.13;4454463;32;33764;-61
2022/07/21 10:37:38;;;;;;;5.90;3.33;;;;;;;38.71;17.71;99677.56;4446949;32;32309;-63
2022/07/21 10:40:18;;;;;;;6.20;3.47;;;;;;;38.41;17.77;99677.69;4444106;32;32835;-64
2022/07/21 10:43:04;;;;;;;6.45;3.60;;;;;;;38.08;18.64;99675.91;4438898;32;33656;-62
2022/07/21 10:45:39;;;;;;;6.35;3.15;;;;;;;38.18;18.06;99659.81;4440533;32;32089;-60
2022/07/21 10:48:28;;;;;;;5.37;2.70;;;;;;;38.15;18.24;99668.81;4443226;32;33653;-62
2022/07/21 10:50:59;;;;;;;4.87;2.85;;;;;;;38.45;17.82;99675.13;4439126;32;32561;-61
2022/07/21 10:53:27;;;;;;;5.85;3.17;;;;;;;38.48;17.01;99671.72;4451729;32;32574;-61
2022/07/21 10:55:55;;;;;;;5.60;3.00;;;;;;;38.81;16.75;99666.19;4441681;32;33496;-64
2022/07/21 10:58:27;;;;;;;7.82;3.10;;;;;;;38.68;17.02;99657.44;4444071;32;32438;-61
2022/07/21 11:01:01;;;;;;;8.77;2.87;;;;;;;38.87;16.82;99660.25;4452988;32;32581;-61
2022/07/21 11:03:39;;;;;;;7.60;2.75;;;;;;;39.10;16.64;99652.91;4441910;32;32922;-61
2022/07/21 11:06:16;;;;;;;7.45;2.60;;;;;;;39.07;16.30;99653.50;4438695;32;31754;-63
2022/07/21 11:08:46;;;;;;;6.68;2.58;;;;;;;39.18;16.02;99645.75;4453405;32;35159;-61
2022/07/21 11:11:25;;;;;;;5.45;2.87;;;;;;;39.08;16.18;99640.34;4451824;32;32655;-59
2022/07/21 11:14:03;;;;;;;5.72;2.67;;;;;;;39.27;16.78;99634.69;4449371;32;32386;-63
2022/07/21 11:16:40;;;;;;;5.55;2.33;;;;;;;38.93;16.31;99632.19;4466145;32;34560;-60
2022/07/21 11:19:30;;;;;;;6.22;2.37;;;;;;;38.71;16.58;99627.22;4467187;32;33632;-62
2022/07/21 11:22:01;;;;;;;7.43;2.95;;;;;;;37.60;17.30;99633.97;4462343;32;34114;-64
2022/07/21 11:24:29;;;;;;;4.97;2.50;;;;;;;38.21;17.90;99631.28;4447062;32;32302;-60
2022/07/21 11:27:02;;;;;;;5.60;2.60;;;;;;;38.75;16.69;99622.66;4466869;32;33374;-64
2022/07/21 11:29:32;;;;;;;5.47;2.75;;;;;;;37.86;17.00;99626.13;4443973;32;32279;-63
2022/07/21 11:32:01;;;;;;;8.88;2.72;;;;;;;38.59;16.61;99614.53;4444086;32;33918;-59
2022/07/21 11:34:52;;;;;;;5.28;2.70;;;;;;;38.94;16.71;99620.69;4461219;32;33555;-61
2022/07/21 11:37:29;;;;;;;6.35;2.97;;;;;;;38.61;16.60;99612.25;4457083;32;33259;-61
2022/07/21 11:40:07;;;;;;;7.82;3.08;;;;;;;38.84;17.33;99609.69;4452599;32;34010;-64
2022/07/21 11:42:36;;;;;;;4.68;2.40;;;;;;;38.43;17.57;99610.31;4457124;32;35220;-61
2022/07/21 11:45:05;;;;;;;6.97;2.70;;;;;;;38.29;16.20;99606.56;4441919;32;32433;-60
2022/07/21 11:47:33;;;;;;;7.00;2.47;;;;;;;38.88;15.65;99610.75;4458410;32;34208;-61
2022/07/21 11:50:05;;;;;;;4.65;2.00;;;;;;;38.81;15.01;99607.47;4454412;32;32481;-61